createdAt,value
2022-08-17T00:00:43.993Z,19.60
2022-08-17T00:03:10.070Z,19.60
2022-08-17T00:05:42.415Z,19.50
2022-08-17T00:08:18.674Z,19.50
2022-08-17T00:10:48.105Z,19.50
2022-08-17T00:13:19.831Z,19.50
2022-08-17T00:15:50.088Z,19.50
2022-08-17T00:19:02.443Z,19.40
2022-08-17T00:21:10.289Z,19.40
2022-08-17T00:23:47.837Z,19.30
2022-08-17T00:26:44.383Z,19.30
2022-08-17T00:29:07.603Z,19.30
2022-08-17T00:31:38.122Z,19.30
2022-08-17T00:34:08.819Z,19.20
2022-08-17T00:36:37.532Z,19.20
2022-08-17T00:39:06.323Z,19.10
2022-08-17T00:41:35.861Z,19.00
2022-08-17T00:44:06.263Z,19.00
2022-08-17T00:46:39.297Z,18.90
2022-08-17T00:49:09.586Z,18.90
2022-08-17T00:51:42.122Z,19.00
2022-08-17T00:54:13.836Z,19.10
2022-08-17T00:56:45.889Z,19.00
2022-08-17T00:59:18.250Z,19.00
2022-08-17T01:01:49.764Z,19.00
2022-08-17T01:04:19.559Z,19.00
2022-08-17T01:06:49.475Z,19.00
2022-08-17T01:09:18.957Z,18.90
2022-08-17T01:11:52.409Z,18.80
2022-08-17T01:14:21.547Z,18.80
2022-08-17T01:16:52.589Z,18.80
2022-08-17T01:19:23.485Z,18.80
2022-08-17T01:21:55.851Z,18.80
2022-08-17T01:24:25.950Z,18.80
2022-08-17T01:26:56.596Z,18.70
2022-08-17T01:29:26.442Z,18.70
2022-08-17T01:31:56.890Z,18.70
2022-08-17T01:34:42.428Z,18.60
2022-08-17T01:37:12.523Z,18.60
2022-08-17T01:39:46.644Z,18.60
2022-08-17T01:42:19.901Z,18.70
2022-08-17T01:44:53.500Z,18.70
2022-08-17T01:47:21.974Z,18.70
2022-08-17T01:49:50.860Z,18.60
2022-08-17T01:52:19.598Z,18.60
2022-08-17T01:54:50.906Z,18.60
2022-08-17T01:57:19.684Z,18.60
2022-08-17T01:59:48.320Z,18.60
2022-08-17T02:02:31.143Z,18.60
2022-08-17T02:05:00.482Z,18.60
2022-08-17T02:07:29.919Z,18.60
2022-08-17T02:10:00.550Z,18.60
2022-08-17T02:12:38.778Z,18.60
2022-08-17T02:15:10.405Z,18.70
2022-08-17T02:17:40.551Z,18.70
2022-08-17T02:20:10.803Z,18.60
2022-08-17T02:22:42.213Z,18.60
2022-08-17T02:25:14.285Z,18.50
2022-08-17T02:27:43.431Z,18.50
2022-08-17T02:30:58.943Z,18.40
2022-08-17T02:33:06.275Z,18.40
2022-08-17T02:35:38.555Z,18.30
2022-08-17T02:38:07.850Z,18.20
2022-08-17T02:40:40.687Z,18.10
2022-08-17T02:43:09.875Z,18.10
2022-08-17T02:45:38.631Z,18.00
2022-08-17T02:48:07.246Z,17.90
2022-08-17T02:50:35.944Z,17.80
2022-08-17T02:53:05.361Z,17.90
2022-08-17T02:55:36.258Z,17.90
2022-08-17T02:58:06.465Z,17.90
2022-08-17T03:00:37.836Z,18.00
2022-08-17T03:03:07.241Z,18.00
2022-08-17T03:05:37.430Z,18.10
2022-08-17T03:08:07.447Z,18.10
2022-08-17T03:10:41.699Z,17.80
2022-08-17T03:13:13.085Z,17.80
2022-08-17T03:15:43.857Z,17.80
2022-08-17T03:18:19.089Z,17.80
2022-08-17T03:20:55.543Z,17.80
2022-08-17T03:23:25.387Z,17.90
2022-08-17T03:25:55.694Z,17.90
2022-08-17T03:28:26.247Z,18.00
2022-08-17T03:30:55.794Z,17.90
2022-08-17T03:33:24.360Z,17.90
2022-08-17T03:35:53.333Z,17.80
2022-08-17T03:38:21.896Z,17.80
2022-08-17T03:40:56.412Z,17.80
2022-08-17T03:43:30.017Z,17.90
2022-08-17T03:46:28.896Z,17.90
2022-08-17T03:49:25.951Z,17.90
2022-08-17T03:52:12.216Z,17.90
2022-08-17T03:54:59.167Z,17.90
2022-08-17T03:57:27.735Z,17.90
2022-08-17T03:59:58.106Z,18.00
2022-08-17T04:02:29.677Z,18.10
2022-08-17T04:04:58.757Z,18.20
2022-08-17T04:07:29.067Z,18.40
2022-08-17T04:09:59.439Z,18.60
2022-08-17T04:12:30.941Z,18.80
2022-08-17T04:15:01.302Z,18.90
2022-08-17T04:17:30.602Z,19.10
2022-08-17T04:19:59.059Z,19.20
2022-08-17T04:22:32.868Z,19.40
2022-08-17T04:25:09.174Z,19.50
2022-08-17T04:27:38.220Z,19.60
2022-08-17T04:30:09.769Z,19.60
2022-08-17T04:33:03.746Z,19.70
2022-08-17T04:35:37.917Z,19.80
2022-08-17T04:38:06.646Z,19.90
2022-08-17T04:40:52.808Z,19.90
2022-08-17T04:43:23.189Z,20.00
2022-08-17T04:45:56.843Z,20.00
2022-08-17T04:48:29.967Z,20.10
2022-08-17T04:51:08.089Z,20.10
2022-08-17T04:53:37.174Z,20.20
2022-08-17T04:56:06.260Z,20.20
2022-08-17T04:58:34.863Z,20.20
2022-08-17T05:01:05.853Z,20.00
2022-08-17T05:03:34.470Z,19.80
2022-08-17T05:06:03.081Z,19.70
2022-08-17T05:08:31.926Z,19.60
2022-08-17T05:11:01.197Z,19.50
2022-08-17T05:13:30.720Z,19.40
2022-08-17T05:16:00.698Z,19.40
2022-08-17T05:18:31.349Z,19.40
2022-08-17T05:21:00.005Z,19.40
2022-08-17T05:23:37.863Z,19.40
2022-08-17T05:26:17.956Z,19.30
2022-08-17T05:28:54.647Z,19.30
2022-08-17T05:31:25.982Z,19.20
2022-08-17T05:33:55.867Z,19.30
2022-08-17T05:36:42.079Z,19.40
2022-08-17T05:39:16.614Z,19.60
2022-08-17T05:41:48.327Z,20.00
2022-08-17T05:44:17.731Z,20.30
2022-08-17T05:46:49.348Z,20.60
2022-08-17T05:49:22.859Z,21.00
2022-08-17T05:52:05.103Z,21.40
2022-08-17T05:54:42.918Z,21.80
2022-08-17T05:57:32.225Z,22.10
2022-08-17T06:00:15.992Z,22.50
2022-08-17T06:02:59.338Z,22.90
2022-08-17T06:05:52.423Z,23.30
2022-08-17T06:08:27.218Z,23.70
2022-08-17T06:11:00.609Z,24.10
2022-08-17T06:13:40.770Z,24.30
2022-08-17T06:16:31.118Z,24.50
2022-08-17T06:19:03.828Z,24.80
2022-08-17T06:21:36.247Z,25.10
2022-08-17T06:24:08.364Z,25.40
2022-08-17T06:26:42.940Z,25.70
2022-08-17T06:29:21.067Z,25.90
2022-08-17T06:31:50.123Z,26.00
2022-08-17T06:34:21.692Z,26.30
2022-08-17T06:36:56.555Z,26.40
2022-08-17T06:39:39.218Z,26.50
2022-08-17T06:43:02.909Z,26.70
2022-08-17T06:45:09.817Z,26.90
2022-08-17T06:47:44.560Z,27.10
2022-08-17T06:50:18.455Z,27.10
2022-08-17T06:52:52.451Z,27.10
2022-08-17T06:55:23.780Z,27.20
2022-08-17T06:57:55.482Z,27.30
2022-08-17T07:00:26.303Z,27.40
2022-08-17T07:02:58.034Z,27.60
2022-08-17T07:05:29.153Z,27.70
2022-08-17T07:08:04.773Z,27.80
2022-08-17T07:10:38.282Z,27.90
2022-08-17T07:13:29.529Z,27.90
2022-08-17T07:16:07.872Z,27.90
2022-08-17T07:18:36.470Z,27.90
2022-08-17T07:21:15.472Z,27.80
2022-08-17T07:24:00.682Z,27.60
2022-08-17T07:26:29.584Z,27.50
2022-08-17T07:28:58.137Z,27.40
2022-08-17T07:31:27.766Z,27.50
2022-08-17T07:34:07.999Z,27.60
2022-08-17T07:36:36.514Z,27.70
2022-08-17T07:39:06.665Z,27.80
2022-08-17T07:41:57.406Z,27.80
2022-08-17T07:44:27.640Z,27.80
2022-08-17T07:47:13.830Z,27.80
2022-08-17T07:49:46.476Z,27.70
2022-08-17T07:52:51.496Z,27.70
2022-08-17T07:55:32.740Z,27.80
2022-08-17T07:58:01.867Z,27.80
2022-08-17T08:00:32.097Z,27.80
2022-08-17T08:03:07.216Z,27.80
2022-08-17T08:05:49.927Z,27.80
2022-08-17T08:08:28.089Z,27.90
2022-08-17T08:11:05.319Z,28.00
2022-08-17T08:13:34.139Z,28.20
2022-08-17T08:16:26.000Z,28.30
2022-08-17T08:18:57.976Z,28.30
2022-08-17T08:21:36.614Z,28.20
2022-08-17T08:24:30.778Z,28.20
2022-08-17T08:27:09.433Z,28.00
2022-08-17T08:29:45.051Z,28.00
2022-08-17T08:32:20.219Z,28.10
2022-08-17T08:35:02.832Z,28.10
2022-08-17T08:37:42.141Z,28.10
2022-08-17T08:40:24.787Z,28.10
2022-08-17T08:43:00.693Z,28.20
2022-08-17T08:45:34.410Z,28.20
2022-08-17T08:48:46.068Z,28.20
2022-08-17T08:51:10.555Z,28.20
2022-08-17T08:53:49.045Z,28.20
2022-08-17T08:56:26.247Z,28.20
2022-08-17T08:59:02.239Z,28.20
2022-08-17T09:01:38.870Z,28.20
2022-08-17T09:04:55.922Z,28.30
2022-08-17T09:07:33.660Z,28.30
2022-08-17T09:10:10.297Z,28.20
2022-08-17T09:15:27.626Z,28.30
2022-08-17T09:19:01.183Z,28.30
2022-08-17T09:20:52.487Z,28.40
2022-08-17T09:23:32.469Z,28.40
2022-08-17T09:26:05.431Z,28.40
2022-08-17T09:28:37.805Z,28.40
2022-08-17T09:31:11.173Z,28.30
2022-08-17T09:33:44.559Z,28.40
2022-08-17T09:36:15.994Z,28.40
2022-08-17T09:38:58.362Z,28.40
2022-08-17T09:41:48.894Z,28.40
2022-08-17T09:44:25.895Z,28.40
2022-08-17T09:46:58.332Z,28.50
2022-08-17T09:49:31.035Z,28.50
2022-08-17T09:52:04.239Z,28.50
2022-08-17T09:54:39.289Z,28.40
2022-08-17T09:57:29.677Z,28.40
2022-08-17T10:00:16.938Z,28.50
2022-08-17T10:03:19.815Z,28.40
2022-08-17T10:05:56.426Z,28.40
2022-08-17T10:08:36.340Z,28.40
2022-08-17T10:11:18.037Z,28.40
2022-08-17T10:13:53.168Z,28.40
2022-08-17T10:16:27.400Z,28.40
2022-08-17T10:19:13.778Z,28.40
2022-08-17T10:22:14.402Z,28.60
2022-08-17T10:25:22.935Z,28.60
2022-08-17T10:27:56.652Z,28.60
2022-08-17T10:30:28.687Z,28.70
2022-08-17T10:32:59.719Z,28.70
2022-08-17T10:35:39.433Z,28.70
2022-08-17T10:38:32.356Z,28.70
2022-08-17T10:41:05.048Z,28.70
2022-08-17T10:43:55.849Z,28.70
2022-08-17T10:46:52.224Z,28.80
2022-08-17T10:49:33.993Z,28.80
2022-08-17T10:52:05.013Z,28.80
2022-08-17T10:54:49.039Z,28.90
2022-08-17T10:57:40.236Z,28.90
2022-08-17T11:00:39.158Z,29.00
2022-08-17T11:03:17.395Z,29.10
2022-08-17T11:05:54.170Z,29.30
2022-08-17T11:09:02.471Z,29.40
2022-08-17T11:11:49.909Z,29.50
2022-08-17T11:14:42.055Z,29.50
2022-08-17T11:17:20.519Z,29.50
2022-08-17T11:20:21.459Z,29.50
2022-08-17T11:23:18.436Z,29.60
2022-08-17T11:25:50.167Z,29.60
2022-08-17T11:28:24.507Z,29.60
2022-08-17T11:30:55.102Z,29.60
2022-08-17T11:33:56.703Z,29.60
2022-08-17T11:36:52.316Z,29.70
2022-08-17T11:39:33.272Z,29.70
2022-08-17T11:42:05.961Z,29.80
2022-08-17T11:44:47.559Z,29.80
2022-08-17T11:47:38.706Z,29.90
2022-08-17T11:50:49.671Z,29.80
2022-08-17T11:54:31.793Z,29.90
2022-08-17T11:56:59.114Z,29.90
2022-08-17T11:59:58.733Z,29.90
2022-08-17T12:02:47.353Z,30.00
2022-08-17T12:05:40.486Z,30.00
2022-08-17T12:08:15.220Z,30.10
2022-08-17T12:11:01.519Z,30.10
2022-08-17T12:13:38.624Z,30.10
2022-08-17T12:16:10.355Z,30.20
2022-08-17T12:18:41.969Z,30.10
2022-08-17T12:21:38.343Z,30.20
2022-08-17T12:24:14.632Z,30.10
2022-08-17T12:26:45.238Z,30.10
2022-08-17T12:29:18.497Z,30.20
2022-08-17T12:32:08.514Z,30.30
2022-08-17T12:34:40.996Z,30.40
2022-08-17T12:37:16.330Z,30.40
2022-08-17T12:39:52.461Z,30.50
2022-08-17T12:42:26.291Z,30.50
2022-08-17T12:44:54.803Z,30.60
2022-08-17T12:47:25.447Z,30.60
2022-08-17T12:50:08.335Z,30.50
2022-08-17T12:53:01.709Z,30.60
2022-08-17T12:55:32.732Z,30.50
2022-08-17T12:58:03.806Z,30.60
2022-08-17T13:00:34.530Z,30.60
2022-08-17T13:03:09.126Z,30.70
2022-08-17T13:05:43.586Z,30.70
2022-08-17T13:08:16.706Z,30.80
2022-08-17T13:10:54.267Z,30.80
2022-08-17T13:13:26.935Z,30.80
2022-08-17T13:15:57.153Z,30.80
2022-08-17T13:18:48.364Z,30.90
2022-08-17T13:21:27.718Z,30.90
2022-08-17T13:23:58.311Z,30.90
2022-08-17T13:26:30.898Z,31.00
2022-08-17T13:28:59.962Z,31.10
2022-08-17T13:31:48.316Z,31.10
2022-08-17T13:34:41.141Z,31.10
2022-08-17T13:37:30.149Z,31.10
2022-08-17T13:40:01.199Z,31.10
2022-08-17T13:42:52.178Z,31.10
2022-08-17T13:46:01.275Z,31.10
2022-08-17T13:48:32.077Z,31.10
2022-08-17T13:51:15.628Z,31.10
2022-08-17T13:53:58.100Z,31.10
2022-08-17T13:56:47.560Z,31.10
2022-08-17T13:59:54.159Z,31.20
2022-08-17T14:02:15.115Z,31.20
2022-08-17T14:04:46.018Z,31.30
2022-08-17T14:07:33.662Z,31.30
2022-08-17T14:10:06.100Z,31.30
2022-08-17T14:12:35.622Z,31.30
2022-08-17T14:15:04.606Z,31.30
2022-08-17T14:17:38.081Z,31.30
2022-08-17T14:20:10.471Z,31.40
2022-08-17T14:22:47.224Z,31.40
2022-08-17T14:25:17.590Z,31.30
2022-08-17T14:27:52.623Z,31.30
2022-08-17T14:30:23.773Z,31.40
2022-08-17T14:32:52.833Z,31.40
2022-08-17T14:35:23.294Z,31.40
2022-08-17T14:37:54.155Z,31.40
2022-08-17T14:40:24.965Z,31.40
2022-08-17T14:42:55.299Z,31.40
2022-08-17T14:45:30.230Z,31.40
2022-08-17T14:48:01.584Z,31.50
2022-08-17T14:50:30.229Z,31.40
2022-08-17T14:53:04.406Z,31.40
2022-08-17T14:55:33.516Z,31.50
2022-08-17T14:58:01.983Z,31.50
2022-08-17T15:00:31.497Z,31.50
2022-08-17T15:03:01.371Z,31.50
2022-08-17T15:05:32.541Z,31.40
2022-08-17T15:08:03.653Z,31.30
2022-08-17T15:10:32.713Z,31.30
2022-08-17T15:13:01.440Z,31.30
2022-08-17T15:15:30.598Z,31.20
2022-08-17T15:17:59.933Z,31.20
2022-08-17T15:20:30.535Z,31.10
2022-08-17T15:22:59.741Z,31.20
2022-08-17T15:25:32.253Z,31.10
2022-08-17T15:28:01.584Z,31.20
2022-08-17T15:30:30.487Z,31.20
2022-08-17T15:33:02.829Z,31.20
2022-08-17T15:35:36.097Z,31.10
2022-08-17T15:38:11.579Z,31.10
2022-08-17T15:40:44.263Z,31.10
2022-08-17T15:43:14.960Z,31.00
2022-08-17T15:45:43.988Z,31.00
2022-08-17T15:48:14.256Z,31.00
2022-08-17T15:50:45.122Z,31.00
2022-08-17T15:53:14.200Z,30.90
2022-08-17T15:55:44.274Z,30.80
2022-08-17T15:58:13.128Z,30.80
2022-08-17T16:00:53.375Z,30.80
2022-08-17T16:04:01.841Z,30.80
2022-08-17T16:06:24.472Z,30.70
2022-08-17T16:08:54.299Z,30.70
2022-08-17T16:11:24.889Z,30.80
2022-08-17T16:13:54.701Z,30.80
2022-08-17T16:16:24.715Z,30.80
2022-08-17T16:18:56.350Z,30.80
2022-08-17T16:21:31.233Z,30.80
2022-08-17T16:24:13.430Z,30.80
2022-08-17T16:26:44.113Z,30.80
2022-08-17T16:29:12.648Z,30.90
2022-08-17T16:31:41.932Z,30.80
2022-08-17T16:34:16.731Z,30.80
2022-08-17T16:36:55.182Z,30.80
2022-08-17T16:39:26.614Z,30.70
2022-08-17T16:41:56.957Z,30.70
2022-08-17T16:44:26.095Z,30.60
2022-08-17T16:46:54.569Z,30.60
2022-08-17T16:49:35.749Z,30.50
2022-08-17T16:52:07.858Z,30.50
2022-08-17T16:54:38.717Z,30.40
2022-08-17T16:57:08.732Z,30.40
2022-08-17T16:59:40.298Z,30.40
2022-08-17T17:02:11.714Z,30.40
2022-08-17T17:04:43.461Z,30.40
2022-08-17T17:07:35.052Z,30.30
2022-08-17T17:10:06.135Z,30.20
2022-08-17T17:13:01.273Z,30.10
2022-08-17T17:15:29.110Z,29.90
2022-08-17T17:18:06.173Z,29.80
2022-08-17T17:20:45.911Z,29.60
2022-08-17T17:23:26.258Z,29.50
2022-08-17T17:26:01.076Z,29.40
2022-08-17T17:28:35.450Z,29.30
2022-08-17T17:31:08.015Z,29.20
2022-08-17T17:33:40.311Z,29.20
2022-08-17T17:36:14.415Z,29.00
2022-08-17T17:38:46.849Z,28.90
2022-08-17T17:41:25.890Z,28.70
2022-08-17T17:44:01.920Z,28.50
2022-08-17T17:46:34.459Z,28.20
2022-08-17T17:49:02.947Z,28.10
2022-08-17T17:52:06.249Z,27.90
2022-08-17T17:54:40.435Z,27.80
2022-08-17T17:57:15.604Z,27.60
2022-08-17T17:59:54.142Z,27.50
2022-08-17T18:02:51.641Z,27.40
2022-08-17T18:05:58.322Z,27.20
2022-08-17T18:08:45.296Z,27.10
2022-08-17T18:11:37.107Z,27.00
2022-08-17T18:14:15.381Z,26.90
2022-08-17T18:16:48.066Z,26.70
2022-08-17T18:19:20.039Z,26.60
2022-08-17T18:21:52.247Z,26.50
2022-08-17T18:24:31.246Z,26.40
2022-08-17T18:27:01.230Z,26.30
2022-08-17T18:29:42.213Z,26.20
2022-08-17T18:32:32.474Z,26.20
2022-08-17T18:35:05.043Z,26.10
2022-08-17T18:37:37.704Z,26.00
2022-08-17T18:40:35.526Z,25.90
2022-08-17T18:43:24.406Z,25.90
2022-08-17T18:45:54.561Z,25.80
2022-08-17T18:48:28.046Z,25.60
2022-08-17T18:50:59.360Z,25.50
2022-08-17T18:53:33.992Z,25.60
2022-08-17T18:56:33.213Z,25.50
2022-08-17T18:59:14.370Z,25.40
2022-08-17T19:01:53.555Z,25.30
2022-08-17T19:04:33.957Z,25.20
2022-08-17T19:07:07.552Z,25.10
2022-08-17T19:09:39.368Z,25.00
2022-08-17T19:12:11.915Z,25.00
2022-08-17T19:14:40.720Z,24.90
2022-08-17T19:17:13.033Z,24.80
2022-08-17T19:19:46.613Z,24.80
2022-08-17T19:22:28.407Z,24.80
2022-08-17T19:25:16.160Z,24.70
2022-08-17T19:27:51.867Z,24.70
2022-08-17T19:30:27.794Z,24.60
2022-08-17T19:32:58.372Z,24.50
2022-08-17T19:35:34.976Z,24.50
2022-08-17T19:38:12.900Z,24.50
2022-08-17T19:40:54.406Z,24.30
2022-08-17T19:43:27.919Z,24.30
2022-08-17T19:46:02.359Z,24.20
2022-08-17T19:48:45.420Z,24.20
2022-08-17T19:51:19.155Z,24.20
2022-08-17T19:54:05.311Z,24.10
2022-08-17T19:56:40.221Z,24.00
2022-08-17T19:59:14.972Z,24.00
2022-08-17T20:01:48.952Z,23.90
2022-08-17T20:04:22.439Z,23.90
2022-08-17T20:06:53.190Z,23.80
2022-08-17T20:09:37.495Z,23.70
2022-08-17T20:12:10.855Z,23.70
2022-08-17T20:14:53.637Z,23.60
2022-08-17T20:17:28.294Z,23.60
2022-08-17T20:20:03.499Z,23.60
2022-08-17T20:22:52.495Z,23.50
2022-08-17T20:25:30.348Z,23.50
2022-08-17T20:28:06.371Z,23.50
2022-08-17T20:30:38.926Z,23.40
2022-08-17T20:33:13.181Z,23.40
2022-08-17T20:35:42.219Z,23.40
2022-08-17T20:38:14.704Z,23.30
2022-08-17T20:41:11.878Z,23.30
2022-08-17T20:44:03.264Z,23.20
2022-08-17T20:46:52.888Z,23.20
2022-08-17T20:49:27.226Z,23.10
2022-08-17T20:52:02.168Z,23.10
2022-08-17T20:54:49.020Z,23.10
2022-08-17T20:57:51.319Z,23.00
2022-08-17T21:00:43.135Z,23.00
2022-08-17T21:03:51.085Z,22.90
2022-08-17T21:06:22.994Z,22.90
2022-08-17T21:08:55.245Z,22.80
2022-08-17T21:12:04.084Z,22.80
2022-08-17T21:14:58.661Z,22.70
2022-08-17T21:17:42.337Z,22.70
2022-08-17T21:20:23.864Z,22.70
2022-08-17T21:23:10.078Z,22.60
2022-08-17T21:25:56.941Z,22.60
2022-08-17T21:28:33.862Z,22.50
2022-08-17T21:31:08.972Z,22.50
2022-08-17T21:33:39.078Z,22.30
2022-08-17T21:36:24.780Z,22.20
2022-08-17T21:39:03.120Z,22.00
2022-08-17T21:41:46.233Z,21.90
2022-08-17T21:44:33.823Z,22.00
2022-08-17T21:47:24.601Z,22.00
2022-08-17T21:49:53.884Z,22.00
2022-08-17T21:52:25.262Z,21.90
2022-08-17T21:54:56.236Z,21.80
2022-08-17T21:57:28.704Z,21.80
2022-08-17T22:00:00.290Z,21.80
2022-08-17T22:02:33.763Z,21.80
2022-08-17T22:05:04.511Z,21.70
2022-08-17T22:07:38.432Z,21.70
2022-08-17T22:10:09.416Z,21.70
2022-08-17T22:12:38.640Z,21.70
2022-08-17T22:15:10.410Z,21.70
2022-08-17T22:17:45.076Z,21.70
2022-08-17T22:20:16.780Z,21.70
2022-08-17T22:23:25.183Z,21.70
2022-08-17T22:26:02.076Z,21.70
2022-08-17T22:28:42.663Z,21.60
2022-08-17T22:31:15.453Z,21.60
2022-08-17T22:33:47.055Z,21.60
2022-08-17T22:36:26.255Z,21.50
2022-08-17T22:38:59.918Z,21.50
2022-08-17T22:41:40.518Z,21.50
2022-08-17T22:44:23.242Z,21.50
2022-08-17T22:46:59.889Z,21.50
2022-08-17T22:49:32.444Z,21.40
2022-08-17T22:52:08.405Z,21.40
2022-08-17T22:54:54.560Z,21.40
2022-08-17T22:57:42.012Z,21.40
2022-08-17T23:00:29.848Z,21.40
2022-08-17T23:03:15.586Z,21.40
2022-08-17T23:05:46.103Z,21.40
2022-08-17T23:08:20.986Z,21.40
2022-08-17T23:10:50.275Z,21.40
2022-08-17T23:13:18.869Z,21.40
2022-08-17T23:15:48.189Z,21.40
2022-08-17T23:18:18.243Z,21.40
2022-08-17T23:20:47.174Z,21.30
2022-08-17T23:23:18.755Z,21.30
2022-08-17T23:25:49.395Z,21.30
2022-08-17T23:28:18.056Z,21.20
2022-08-17T23:30:48.498Z,21.30
2022-08-17T23:33:21.314Z,21.30
2022-08-17T23:35:50.165Z,21.30
2022-08-17T23:38:18.711Z,21.20
2022-08-17T23:40:47.242Z,21.20
2022-08-17T23:43:23.756Z,21.20
2022-08-17T23:45:55.036Z,21.20
2022-08-17T23:48:35.173Z,21.20
2022-08-17T23:51:08.694Z,21.30
2022-08-17T23:53:37.962Z,21.40
2022-08-17T23:56:10.063Z,21.40
2022-08-17T23:58:42.573Z,21.40
